sensor_id;sensor_type;location;lat;lon;timestamp;P1;durP1;ratioP1;P2;durP2;ratioP2
30519;SDS011;17300;50.374;8.006;2023-06-22T00:01:16;4.43;;;4.03;;
30519;SDS011;17300;50.374;8.006;2023-06-22T00:03:44;4.10;;;3.80;;
30519;SDS011;17300;50.374;8.006;2023-06-22T00:06:10;4.75;;;4.35;;
30519;SDS011;17300;50.374;8.006;2023-06-22T00:08:37;4.15;;;3.85;;
30519;SDS011;17300;50.374;8.006;2023-06-22T00:11:04;4.38;;;4.03;;
30519;SDS011;17300;50.374;8.006;2023-06-22T00:13:30;4.32;;;4.03;;
30519;SDS011;17300;50.374;8.006;2023-06-22T00:15:57;4.50;;;4.20;;
30519;SDS011;17300;50.374;8.006;2023-06-22T00:18:24;4.47;;;4.18;;
30519;SDS011;17300;50.374;8.006;2023-06-22T00:20:54;4.28;;;3.97;;
30519;SDS011;17300;50.374;8.006;2023-06-22T00:23:23;4.63;;;4.32;;
30519;SDS011;17300;50.374;8.006;2023-06-22T00:25:50;4.78;;;4.38;;
30519;SDS011;17300;50.374;8.006;2023-06-22T00:28:17;4.30;;;4.00;;
30519;SDS011;17300;50.374;8.006;2023-06-22T00:30:44;4.30;;;4.00;;
30519;SDS011;17300;50.374;8.006;2023-06-22T00:33:11;4.75;;;4.38;;
30519;SDS011;17300;50.374;8.006;2023-06-22T00:35:37;4.75;;;4.45;;
30519;SDS011;17300;50.374;8.006;2023-06-22T00:38:07;4.45;;;4.07;;
30519;SDS011;17300;50.374;8.006;2023-06-22T00:40:34;4.10;;;3.80;;
30519;SDS011;17300;50.374;8.006;2023-06-22T00:43:01;4.32;;;4.03;;
30519;SDS011;17300;50.374;8.006;2023-06-22T00:45:27;4.90;;;4.50;;
30519;SDS011;17300;50.374;8.006;2023-06-22T00:47:55;4.97;;;4.57;;
30519;SDS011;17300;50.374;8.006;2023-06-22T00:50:24;4.50;;;4.20;;
30519;SDS011;17300;50.374;8.006;2023-06-22T00:52:53;4.82;;;4.50;;
30519;SDS011;17300;50.374;8.006;2023-06-22T00:55:24;4.63;;;4.30;;
30519;SDS011;17300;50.374;8.006;2023-06-22T00:57:52;5.22;;;4.72;;
30519;SDS011;17300;50.374;8.006;2023-06-22T01:00:20;4.45;;;4.05;;
30519;SDS011;17300;50.374;8.006;2023-06-22T01:02:49;4.75;;;4.45;;
30519;SDS011;17300;50.374;8.006;2023-06-22T01:05:17;5.25;;;4.85;;
30519;SDS011;17300;50.374;8.006;2023-06-22T01:07:48;4.90;;;4.50;;
30519;SDS011;17300;50.374;8.006;2023-06-22T01:10:29;5.45;;;4.65;;
30519;SDS011;17300;50.374;8.006;2023-06-22T01:13:06;4.88;;;4.38;;
30519;SDS011;17300;50.374;8.006;2023-06-22T01:15:36;4.65;;;4.35;;
30519;SDS011;17300;50.374;8.006;2023-06-22T01:18:06;4.47;;;4.18;;
30519;SDS011;17300;50.374;8.006;2023-06-22T01:20:35;5.43;;;5.03;;
30519;SDS011;17300;50.374;8.006;2023-06-22T01:23:05;4.82;;;4.53;;
30519;SDS011;17300;50.374;8.006;2023-06-22T01:25:46;4.40;;;4.10;;
30519;SDS011;17300;50.374;8.006;2023-06-22T01:28:22;4.10;;;3.70;;
30519;SDS011;17300;50.374;8.006;2023-06-22T01:30:52;5.13;;;4.70;;
30519;SDS011;17300;50.374;8.006;2023-06-22T01:33:28;4.80;;;4.40;;
30519;SDS011;17300;50.374;8.006;2023-06-22T01:35:57;4.75;;;4.45;;
30519;SDS011;17300;50.374;8.006;2023-06-22T01:38:25;5.18;;;4.78;;
30519;SDS011;17300;50.374;8.006;2023-06-22T01:40:52;5.00;;;4.60;;
30519;SDS011;17300;50.374;8.006;2023-06-22T01:43:20;5.07;;;4.72;;
30519;SDS011;17300;50.374;8.006;2023-06-22T01:45:48;5.22;;;4.82;;
30519;SDS011;17300;50.374;8.006;2023-06-22T01:48:17;5.10;;;4.70;;
30519;SDS011;17300;50.374;8.006;2023-06-22T01:50:44;5.35;;;4.95;;
30519;SDS011;17300;50.374;8.006;2023-06-22T01:53:11;5.10;;;4.68;;
30519;SDS011;17300;50.374;8.006;2023-06-22T01:55:37;4.85;;;4.55;;
30519;SDS011;17300;50.374;8.006;2023-06-22T01:58:04;4.72;;;4.32;;
30519;SDS011;17300;50.374;8.006;2023-06-22T02:00:31;5.03;;;4.63;;
30519;SDS011;17300;50.374;8.006;2023-06-22T02:03:03;5.35;;;4.95;;
30519;SDS011;17300;50.374;8.006;2023-06-22T02:05:36;4.82;;;4.43;;
30519;SDS011;17300;50.374;8.006;2023-06-22T02:08:08;4.97;;;4.63;;
30519;SDS011;17300;50.374;8.006;2023-06-22T02:10:37;5.35;;;4.95;;
30519;SDS011;17300;50.374;8.006;2023-06-22T02:13:06;6.13;;;4.90;;
30519;SDS011;17300;50.374;8.006;2023-06-22T02:15:35;5.15;;;4.75;;
30519;SDS011;17300;50.374;8.006;2023-06-22T02:18:02;5.97;;;5.47;;
30519;SDS011;17300;50.374;8.006;2023-06-22T02:20:30;5.43;;;5.03;;
30519;SDS011;17300;50.374;8.006;2023-06-22T02:22:58;5.00;;;4.60;;
30519;SDS011;17300;50.374;8.006;2023-06-22T02:25:24;5.68;;;5.15;;
30519;SDS011;17300;50.374;8.006;2023-06-22T02:27:51;5.15;;;4.75;;
30519;SDS011;17300;50.374;8.006;2023-06-22T02:30:18;5.32;;;4.90;;
30519;SDS011;17300;50.374;8.006;2023-06-22T02:32:44;5.53;;;5.00;;
30519;SDS011;17300;50.374;8.006;2023-06-22T02:35:11;5.70;;;5.20;;
30519;SDS011;17300;50.374;8.006;2023-06-22T02:37:38;4.85;;;4.45;;
30519;SDS011;17300;50.374;8.006;2023-06-22T02:40:08;5.72;;;5.22;;
30519;SDS011;17300;50.374;8.006;2023-06-22T02:42:35;4.93;;;4.57;;
30519;SDS011;17300;50.374;8.006;2023-06-22T02:45:02;5.40;;;4.90;;
30519;SDS011;17300;50.374;8.006;2023-06-22T02:47:29;5.18;;;4.88;;
30519;SDS011;17300;50.374;8.006;2023-06-22T02:49:56;5.90;;;5.40;;
30519;SDS011;17300;50.374;8.006;2023-06-22T02:52:23;5.20;;;4.75;;
30519;SDS011;17300;50.374;8.006;2023-06-22T02:54:50;4.95;;;4.60;;
30519;SDS011;17300;50.374;8.006;2023-06-22T02:57:18;5.70;;;5.07;;
30519;SDS011;17300;50.374;8.006;2023-06-22T02:59:45;5.57;;;5.05;;
30519;SDS011;17300;50.374;8.006;2023-06-22T03:02:11;5.50;;;5.10;;
30519;SDS011;17300;50.374;8.006;2023-06-22T03:04:38;5.35;;;4.95;;
30519;SDS011;17300;50.374;8.006;2023-06-22T03:07:05;5.00;;;4.60;;
30519;SDS011;17300;50.374;8.006;2023-06-22T03:09:31;5.15;;;4.75;;
30519;SDS011;17300;50.374;8.006;2023-06-22T03:11:58;5.22;;;4.82;;
30519;SDS011;17300;50.374;8.006;2023-06-22T03:14:26;5.35;;;4.95;;
30519;SDS011;17300;50.374;8.006;2023-06-22T03:16:53;5.15;;;4.75;;
30519;SDS011;17300;50.374;8.006;2023-06-22T03:19:19;5.65;;;5.25;;
30519;SDS011;17300;50.374;8.006;2023-06-22T03:21:47;5.88;;;5.28;;
30519;SDS011;17300;50.374;8.006;2023-06-22T03:24:13;5.82;;;5.38;;
30519;SDS011;17300;50.374;8.006;2023-06-22T03:26:40;5.80;;;5.40;;
30519;SDS011;17300;50.374;8.006;2023-06-22T03:29:07;5.55;;;5.05;;
30519;SDS011;17300;50.374;8.006;2023-06-22T03:31:35;6.00;;;5.47;;
30519;SDS011;17300;50.374;8.006;2023-06-22T03:34:01;5.70;;;5.25;;
30519;SDS011;17300;50.374;8.006;2023-06-22T03:36:28;5.40;;;4.97;;
30519;SDS011;17300;50.374;8.006;2023-06-22T03:38:55;5.70;;;5.20;;
30519;SDS011;17300;50.374;8.006;2023-06-22T03:41:21;6.10;;;5.60;;
30519;SDS011;17300;50.374;8.006;2023-06-22T03:43:48;6.18;;;5.70;;
30519;SDS011;17300;50.374;8.006;2023-06-22T03:46:15;5.43;;;5.05;;
30519;SDS011;17300;50.374;8.006;2023-06-22T03:48:43;6.05;;;5.55;;
30519;SDS011;17300;50.374;8.006;2023-06-22T03:51:09;5.80;;;5.30;;
30519;SDS011;17300;50.374;8.006;2023-06-22T03:53:36;6.00;;;5.50;;
30519;SDS011;17300;50.374;8.006;2023-06-22T03:56:03;5.55;;;5.07;;
30519;SDS011;17300;50.374;8.006;2023-06-22T03:58:30;6.18;;;5.68;;
30519;SDS011;17300;50.374;8.006;2023-06-22T04:00:58;5.80;;;5.40;;
30519;SDS011;17300;50.374;8.006;2023-06-22T04:03:25;6.47;;;5.40;;
30519;SDS011;17300;50.374;8.006;2023-06-22T04:05:54;6.10;;;5.60;;
30519;SDS011;17300;50.374;8.006;2023-06-22T04:08:20;5.90;;;5.40;;
30519;SDS011;17300;50.374;8.006;2023-06-22T04:10:47;5.85;;;5.35;;
30519;SDS011;17300;50.374;8.006;2023-06-22T04:13:14;5.95;;;5.45;;
30519;SDS011;17300;50.374;8.006;2023-06-22T04:15:40;5.60;;;5.20;;
30519;SDS011;17300;50.374;8.006;2023-06-22T04:18:07;5.78;;;5.15;;
30519;SDS011;17300;50.374;8.006;2023-06-22T04:20:34;5.55;;;5.07;;
30519;SDS011;17300;50.374;8.006;2023-06-22T04:23:02;5.70;;;5.30;;
30519;SDS011;17300;50.374;8.006;2023-06-22T04:25:28;5.82;;;5.43;;
30519;SDS011;17300;50.374;8.006;2023-06-22T04:27:55;6.53;;;6.03;;
30519;SDS011;17300;50.374;8.006;2023-06-22T04:30:22;5.43;;;5.03;;
30519;SDS011;17300;50.374;8.006;2023-06-22T04:32:48;6.18;;;5.43;;
30519;SDS011;17300;50.374;8.006;2023-06-22T04:35:21;6.15;;;5.65;;
30519;SDS011;17300;50.374;8.006;2023-06-22T04:37:48;6.05;;;5.55;;
30519;SDS011;17300;50.374;8.006;2023-06-22T04:40:17;6.38;;;5.88;;
30519;SDS011;17300;50.374;8.006;2023-06-22T04:42:45;5.93;;;5.53;;
30519;SDS011;17300;50.374;8.006;2023-06-22T04:45:18;5.95;;;5.45;;
30519;SDS011;17300;50.374;8.006;2023-06-22T04:47:45;6.25;;;5.82;;
30519;SDS011;17300;50.374;8.006;2023-06-22T04:50:12;6.32;;;5.82;;
30519;SDS011;17300;50.374;8.006;2023-06-22T04:52:39;6.07;;;5.57;;
30519;SDS011;17300;50.374;8.006;2023-06-22T04:55:06;6.15;;;5.75;;
30519;SDS011;17300;50.374;8.006;2023-06-22T04:57:35;6.63;;;6.13;;
30519;SDS011;17300;50.374;8.006;2023-06-22T05:00:04;6.60;;;6.07;;
30519;SDS011;17300;50.374;8.006;2023-06-22T05:02:37;6.35;;;5.85;;
30519;SDS011;17300;50.374;8.006;2023-06-22T05:05:04;6.57;;;6.07;;
30519;SDS011;17300;50.374;8.006;2023-06-22T05:07:32;6.22;;;5.82;;
30519;SDS011;17300;50.374;8.006;2023-06-22T05:09:59;6.20;;;5.70;;
30519;SDS011;17300;50.374;8.006;2023-06-22T05:12:27;6.57;;;6.07;;
30519;SDS011;17300;50.374;8.006;2023-06-22T05:14:55;6.00;;;5.50;;
30519;SDS011;17300;50.374;8.006;2023-06-22T05:17:22;7.10;;;6.50;;
30519;SDS011;17300;50.374;8.006;2023-06-22T05:19:49;7.07;;;6.47;;
30519;SDS011;17300;50.374;8.006;2023-06-22T05:22:15;6.88;;;6.28;;
30519;SDS011;17300;50.374;8.006;2023-06-22T05:24:42;7.13;;;6.50;;
30519;SDS011;17300;50.374;8.006;2023-06-22T05:27:09;6.78;;;6.22;;
30519;SDS011;17300;50.374;8.006;2023-06-22T05:29:36;6.57;;;6.07;;
30519;SDS011;17300;50.374;8.006;2023-06-22T05:32:05;7.07;;;6.47;;
30519;SDS011;17300;50.374;8.006;2023-06-22T05:34:32;7.13;;;6.47;;
30519;SDS011;17300;50.374;8.006;2023-06-22T05:36:59;6.55;;;5.95;;
30519;SDS011;17300;50.374;8.006;2023-06-22T05:39:26;7.35;;;6.63;;
30519;SDS011;17300;50.374;8.006;2023-06-22T05:41:52;6.10;;;5.68;;
30519;SDS011;17300;50.374;8.006;2023-06-22T05:44:19;7.28;;;6.13;;
30519;SDS011;17300;50.374;8.006;2023-06-22T05:46:46;6.05;;;5.47;;
30519;SDS011;17300;50.374;8.006;2023-06-22T05:49:14;6.40;;;5.80;;
30519;SDS011;17300;50.374;8.006;2023-06-22T05:51:41;6.18;;;5.68;;
30519;SDS011;17300;50.374;8.006;2023-06-22T05:54:08;5.97;;;5.57;;
30519;SDS011;17300;50.374;8.006;2023-06-22T05:56:35;6.55;;;5.95;;
30519;SDS011;17300;50.374;8.006;2023-06-22T05:59:02;6.70;;;5.68;;
30519;SDS011;17300;50.374;8.006;2023-06-22T06:01:29;6.45;;;5.78;;
30519;SDS011;17300;50.374;8.006;2023-06-22T06:03:59;6.28;;;5.68;;
30519;SDS011;17300;50.374;8.006;2023-06-22T06:06:27;6.80;;;5.82;;
30519;SDS011;17300;50.374;8.006;2023-06-22T06:08:54;7.55;;;5.80;;
30519;SDS011;17300;50.374;8.006;2023-06-22T06:11:21;6.10;;;5.57;;
30519;SDS011;17300;50.374;8.006;2023-06-22T06:13:47;6.20;;;5.47;;
30519;SDS011;17300;50.374;8.006;2023-06-22T06:16:14;6.18;;;5.53;;
30519;SDS011;17300;50.374;8.006;2023-06-22T06:18:41;5.72;;;5.28;;
30519;SDS011;17300;50.374;8.006;2023-06-22T06:21:08;6.18;;;5.13;;
30519;SDS011;17300;50.374;8.006;2023-06-22T06:23:38;5.72;;;5.13;;
30519;SDS011;17300;50.374;8.006;2023-06-22T06:26:05;5.57;;;4.95;;
30519;SDS011;17300;50.374;8.006;2023-06-22T06:28:32;5.43;;;5.03;;
30519;SDS011;17300;50.374;8.006;2023-06-22T06:30:59;5.65;;;5.15;;
30519;SDS011;17300;50.374;8.006;2023-06-22T06:33:26;5.60;;;5.18;;
30519;SDS011;17300;50.374;8.006;2023-06-22T06:35:52;4.78;;;4.38;;
30519;SDS011;17300;50.374;8.006;2023-06-22T06:38:20;5.30;;;4.80;;
30519;SDS011;17300;50.374;8.006;2023-06-22T06:40:48;5.15;;;4.75;;
30519;SDS011;17300;50.374;8.006;2023-06-22T06:43:15;4.93;;;4.47;;
30519;SDS011;17300;50.374;8.006;2023-06-22T06:45:42;4.70;;;4.28;;
30519;SDS011;17300;50.374;8.006;2023-06-22T06:48:08;5.13;;;4.72;;
30519;SDS011;17300;50.374;8.006;2023-06-22T06:50:35;5.25;;;4.85;;
30519;SDS011;17300;50.374;8.006;2023-06-22T06:53:02;5.00;;;4.60;;
30519;SDS011;17300;50.374;8.006;2023-06-22T06:55:30;5.25;;;4.75;;
30519;SDS011;17300;50.374;8.006;2023-06-22T06:57:59;4.63;;;4.28;;
30519;SDS011;17300;50.374;8.006;2023-06-22T07:00:26;6.78;;;4.70;;
30519;SDS011;17300;50.374;8.006;2023-06-22T07:02:52;6.72;;;4.82;;
30519;SDS011;17300;50.374;8.006;2023-06-22T07:05:19;4.82;;;4.43;;
30519;SDS011;17300;50.374;8.006;2023-06-22T07:07:46;5.10;;;4.70;;
30519;SDS011;17300;50.374;8.006;2023-06-22T07:10:12;4.90;;;4.60;;
30519;SDS011;17300;50.374;8.006;2023-06-22T07:12:40;5.18;;;4.70;;
30519;SDS011;17300;50.374;8.006;2023-06-22T07:15:08;5.05;;;4.65;;
30519;SDS011;17300;50.374;8.006;2023-06-22T07:17:37;5.05;;;4.60;;
30519;SDS011;17300;50.374;8.006;2023-06-22T07:20:06;5.75;;;4.88;;
30519;SDS011;17300;50.374;8.006;2023-06-22T07:22:35;5.53;;;4.97;;
30519;SDS011;17300;50.374;8.006;2023-06-22T07:25:01;4.93;;;4.43;;
30519;SDS011;17300;50.374;8.006;2023-06-22T07:27:33;5.57;;;5.18;;
30519;SDS011;17300;50.374;8.006;2023-06-22T07:30:03;5.60;;;5.18;;
30519;SDS011;17300;50.374;8.006;2023-06-22T07:32:32;5.15;;;4.75;;
30519;SDS011;17300;50.374;8.006;2023-06-22T07:35:01;5.18;;;4.80;;
30519;SDS011;17300;50.374;8.006;2023-06-22T07:37:29;5.40;;;5.00;;
30519;SDS011;17300;50.374;8.006;2023-06-22T07:39:58;5.18;;;4.78;;
30519;SDS011;17300;50.374;8.006;2023-06-22T07:42:25;6.15;;;4.80;;
30519;SDS011;17300;50.374;8.006;2023-06-22T07:44:52;5.18;;;4.75;;
30519;SDS011;17300;50.374;8.006;2023-06-22T07:47:21;4.57;;;4.25;;
30519;SDS011;17300;50.374;8.006;2023-06-22T07:49:51;4.93;;;4.60;;
30519;SDS011;17300;50.374;8.006;2023-06-22T07:52:19;4.80;;;4.50;;
30519;SDS011;17300;50.374;8.006;2023-06-22T07:54:47;4.80;;;4.50;;
30519;SDS011;17300;50.374;8.006;2023-06-22T07:57:13;4.50;;;4.20;;
30519;SDS011;17300;50.374;8.006;2023-06-22T07:59:40;4.75;;;4.35;;
30519;SDS011;17300;50.374;8.006;2023-06-22T08:02:07;5.10;;;4.70;;
30519;SDS011;17300;50.374;8.006;2023-06-22T08:04:34;4.30;;;4.00;;
30519;SDS011;17300;50.374;8.006;2023-06-22T08:07:02;4.65;;;4.35;;
30519;SDS011;17300;50.374;8.006;2023-06-22T08:09:30;4.53;;;4.03;;
30519;SDS011;17300;50.374;8.006;2023-06-22T08:11:58;4.43;;;4.13;;
30519;SDS011;17300;50.374;8.006;2023-06-22T08:14:25;4.35;;;4.05;;
30519;SDS011;17300;50.374;8.006;2023-06-22T08:16:53;4.75;;;4.20;;
30519;SDS011;17300;50.374;8.006;2023-06-22T08:19:19;4.50;;;4.10;;
30519;SDS011;17300;50.374;8.006;2023-06-22T08:21:46;4.03;;;3.83;;
30519;SDS011;17300;50.374;8.006;2023-06-22T08:24:17;4.85;;;4.20;;
30519;SDS011;17300;50.374;8.006;2023-06-22T08:26:44;4.63;;;4.22;;
30519;SDS011;17300;50.374;8.006;2023-06-22T08:29:11;4.55;;;4.25;;
30519;SDS011;17300;50.374;8.006;2023-06-22T08:31:37;4.20;;;3.83;;
30519;SDS011;17300;50.374;8.006;2023-06-22T08:34:04;4.40;;;4.10;;
30519;SDS011;17300;50.374;8.006;2023-06-22T08:36:31;4.43;;;4.15;;
30519;SDS011;17300;50.374;8.006;2023-06-22T08:38:59;4.80;;;4.40;;
30519;SDS011;17300;50.374;8.006;2023-06-22T08:41:30;5.03;;;4.18;;
30519;SDS011;17300;50.374;8.006;2023-06-22T08:43:57;4.68;;;4.28;;
30519;SDS011;17300;50.374;8.006;2023-06-22T08:46:24;5.05;;;4.65;;
30519;SDS011;17300;50.374;8.006;2023-06-22T08:48:55;5.10;;;4.70;;
30519;SDS011;17300;50.374;8.006;2023-06-22T08:51:22;4.85;;;4.55;;
30519;SDS011;17300;50.374;8.006;2023-06-22T08:53:49;4.45;;;3.97;;
30519;SDS011;17300;50.374;8.006;2023-06-22T08:56:16;4.60;;;4.30;;
30519;SDS011;17300;50.374;8.006;2023-06-22T08:58:44;4.57;;;4.28;;
30519;SDS011;17300;50.374;8.006;2023-06-22T09:01:10;4.70;;;4.38;;
30519;SDS011;17300;50.374;8.006;2023-06-22T09:03:37;4.55;;;4.22;;
30519;SDS011;17300;50.374;8.006;2023-06-22T09:06:04;4.38;;;4.03;;
30519;SDS011;17300;50.374;8.006;2023-06-22T09:08:30;4.70;;;4.32;;
30519;SDS011;17300;50.374;8.006;2023-06-22T09:10:57;4.65;;;4.35;;
30519;SDS011;17300;50.374;8.006;2023-06-22T09:13:24;5.30;;;4.80;;
30519;SDS011;17300;50.374;8.006;2023-06-22T09:15:52;5.40;;;5.00;;
30519;SDS011;17300;50.374;8.006;2023-06-22T09:18:19;4.90;;;4.50;;
30519;SDS011;17300;50.374;8.006;2023-06-22T09:20:46;5.30;;;4.78;;
30519;SDS011;17300;50.374;8.006;2023-06-22T09:23:12;5.22;;;4.82;;
30519;SDS011;17300;50.374;8.006;2023-06-22T09:25:39;4.95;;;4.45;;
30519;SDS011;17300;50.374;8.006;2023-06-22T09:28:06;4.53;;;4.22;;
30519;SDS011;17300;50.374;8.006;2023-06-22T09:30:33;4.75;;;4.45;;
30519;SDS011;17300;50.374;8.006;2023-06-22T09:33:01;4.63;;;4.32;;
30519;SDS011;17300;50.374;8.006;2023-06-22T09:35:27;4.88;;;4.50;;
30519;SDS011;17300;50.374;8.006;2023-06-22T09:37:54;5.30;;;4.90;;
30519;SDS011;17300;50.374;8.006;2023-06-22T09:40:21;5.03;;;4.65;;
30519;SDS011;17300;50.374;8.006;2023-06-22T09:42:47;5.47;;;4.70;;
30519;SDS011;17300;50.374;8.006;2023-06-22T09:45:14;4.78;;;4.43;;
30519;SDS011;17300;50.374;8.006;2023-06-22T09:47:41;4.78;;;4.40;;
30519;SDS011;17300;50.374;8.006;2023-06-22T09:50:09;5.32;;;4.93;;
30519;SDS011;17300;50.374;8.006;2023-06-22T09:52:36;5.22;;;4.82;;
30519;SDS011;17300;50.374;8.006;2023-06-22T09:55:03;4.68;;;4.28;;
30519;SDS011;17300;50.374;8.006;2023-06-22T09:57:30;5.45;;;5.05;;
30519;SDS011;17300;50.374;8.006;2023-06-22T09:59:57;5.45;;;4.95;;
30519;SDS011;17300;50.374;8.006;2023-06-22T10:02:24;5.70;;;5.30;;
30519;SDS011;17300;50.374;8.006;2023-06-22T10:04:50;6.05;;;5.22;;
30519;SDS011;17300;50.374;8.006;2023-06-22T10:07:18;5.50;;;5.10;;
30519;SDS011;17300;50.374;8.006;2023-06-22T10:09:45;5.43;;;5.03;;
30519;SDS011;17300;50.374;8.006;2023-06-22T10:12:11;5.03;;;4.63;;
30519;SDS011;17300;50.374;8.006;2023-06-22T10:14:38;5.47;;;5.00;;
30519;SDS011;17300;50.374;8.006;2023-06-22T10:17:05;4.97;;;4.57;;
30519;SDS011;17300;50.374;8.006;2023-06-22T10:19:33;5.60;;;5.10;;
30519;SDS011;17300;50.374;8.006;2023-06-22T10:22:02;4.97;;;4.57;;
30519;SDS011;17300;50.374;8.006;2023-06-22T10:24:30;5.10;;;4.80;;
30519;SDS011;17300;50.374;8.006;2023-06-22T10:26:57;4.80;;;4.50;;
30519;SDS011;17300;50.374;8.006;2023-06-22T10:29:23;5.18;;;4.78;;
30519;SDS011;17300;50.374;8.006;2023-06-22T10:31:50;4.88;;;4.57;;
30519;SDS011;17300;50.374;8.006;2023-06-22T10:34:17;4.72;;;4.43;;
30519;SDS011;17300;50.374;8.006;2023-06-22T10:36:43;4.88;;;4.50;;
30519;SDS011;17300;50.374;8.006;2023-06-22T10:39:13;5.05;;;4.55;;
30519;SDS011;17300;50.374;8.006;2023-06-22T10:41:41;5.75;;;4.80;;
30519;SDS011;17300;50.374;8.006;2023-06-22T10:44:08;5.10;;;4.70;;
30519;SDS011;17300;50.374;8.006;2023-06-22T10:46:34;5.15;;;4.75;;
30519;SDS011;17300;50.374;8.006;2023-06-22T10:49:02;4.95;;;4.65;;
30519;SDS011;17300;50.374;8.006;2023-06-22T10:51:29;5.05;;;4.65;;
30519;SDS011;17300;50.374;8.006;2023-06-22T10:53:56;5.50;;;4.90;;
30519;SDS011;17300;50.374;8.006;2023-06-22T10:56:23;5.20;;;4.57;;
30519;SDS011;17300;50.374;8.006;2023-06-22T10:58:51;4.68;;;4.35;;
30519;SDS011;17300;50.374;8.006;2023-06-22T11:01:17;4.90;;;4.50;;
30519;SDS011;17300;50.374;8.006;2023-06-22T11:03:46;4.68;;;4.25;;
30519;SDS011;17300;50.374;8.006;2023-06-22T11:06:12;4.88;;;4.57;;
30519;SDS011;17300;50.374;8.006;2023-06-22T11:08:43;4.95;;;4.55;;
30519;SDS011;17300;50.374;8.006;2023-06-22T11:11:10;4.47;;;4.18;;
30519;SDS011;17300;50.374;8.006;2023-06-22T11:13:36;4.80;;;4.50;;
30519;SDS011;17300;50.374;8.006;2023-06-22T11:16:05;4.40;;;4.10;;
30519;SDS011;17300;50.374;8.006;2023-06-22T11:18:31;4.90;;;4.43;;
30519;SDS011;17300;50.374;8.006;2023-06-22T11:20:58;4.95;;;4.65;;
30519;SDS011;17300;50.374;8.006;2023-06-22T11:23:25;5.07;;;4.68;;
30519;SDS011;17300;50.374;8.006;2023-06-22T11:25:53;4.78;;;4.47;;
30519;SDS011;17300;50.374;8.006;2023-06-22T11:28:19;5.05;;;4.63;;
30519;SDS011;17300;50.374;8.006;2023-06-22T11:30:46;5.00;;;4.60;;
30519;SDS011;17300;50.374;8.006;2023-06-22T11:33:14;4.97;;;4.65;;
30519;SDS011;17300;50.374;8.006;2023-06-22T11:35:41;4.53;;;4.20;;
30519;SDS011;17300;50.374;8.006;2023-06-22T11:38:07;4.82;;;4.43;;
30519;SDS011;17300;50.374;8.006;2023-06-22T11:40:34;4.75;;;4.35;;
30519;SDS011;17300;50.374;8.006;2023-06-22T11:43:01;5.15;;;4.75;;
30519;SDS011;17300;50.374;8.006;2023-06-22T11:45:27;5.07;;;4.75;;
30519;SDS011;17300;50.374;8.006;2023-06-22T11:47:54;4.88;;;4.57;;
30519;SDS011;17300;50.374;8.006;2023-06-22T11:50:22;5.75;;;5.35;;
30519;SDS011;17300;50.374;8.006;2023-06-22T11:52:49;5.13;;;4.72;;
30519;SDS011;17300;50.374;8.006;2023-06-22T11:55:17;5.20;;;4.70;;
30519;SDS011;17300;50.374;8.006;2023-06-22T11:57:54;4.80;;;4.50;;
30519;SDS011;17300;50.374;8.006;2023-06-22T12:00:23;5.18;;;4.78;;
30519;SDS011;17300;50.374;8.006;2023-06-22T12:02:50;4.85;;;4.55;;
30519;SDS011;17300;50.374;8.006;2023-06-22T12:05:17;5.15;;;4.85;;
30519;SDS011;17300;50.374;8.006;2023-06-22T12:07:46;4.90;;;4.55;;
30519;SDS011;17300;50.374;8.006;2023-06-22T12:10:13;4.72;;;4.43;;
30519;SDS011;17300;50.374;8.006;2023-06-22T12:12:40;4.72;;;4.43;;
30519;SDS011;17300;50.374;8.006;2023-06-22T12:15:07;5.47;;;4.78;;
30519;SDS011;17300;50.374;8.006;2023-06-22T12:17:35;4.28;;;3.97;;
30519;SDS011;17300;50.374;8.006;2023-06-22T12:20:02;4.97;;;4.57;;
30519;SDS011;17300;50.374;8.006;2023-06-22T12:22:30;5.07;;;4.68;;
30519;SDS011;17300;50.374;8.006;2023-06-22T12:24:58;5.10;;;4.60;;
30519;SDS011;17300;50.374;8.006;2023-06-22T12:27:25;5.28;;;4.85;;
30519;SDS011;17300;50.374;8.006;2023-06-22T12:29:52;5.18;;;4.68;;
30519;SDS011;17300;50.374;8.006;2023-06-22T12:32:18;5.22;;;4.82;;
30519;SDS011;17300;50.374;8.006;2023-06-22T12:34:45;4.97;;;4.57;;
30519;SDS011;17300;50.374;8.006;2023-06-22T12:37:12;5.53;;;5.03;;
30519;SDS011;17300;50.374;8.006;2023-06-22T12:39:39;6.32;;;4.60;;
30519;SDS011;17300;50.374;8.006;2023-06-22T12:42:09;5.68;;;5.18;;
30519;SDS011;17300;50.374;8.006;2023-06-22T12:44:37;5.43;;;4.88;;
30519;SDS011;17300;50.374;8.006;2023-06-22T12:47:04;5.10;;;4.70;;
30519;SDS011;17300;50.374;8.006;2023-06-22T12:49:32;5.18;;;4.80;;
30519;SDS011;17300;50.374;8.006;2023-06-22T12:51:58;5.20;;;4.80;;
30519;SDS011;17300;50.374;8.006;2023-06-22T12:54:25;4.97;;;4.57;;
30519;SDS011;17300;50.374;8.006;2023-06-22T12:56:53;5.32;;;4.60;;
30519;SDS011;17300;50.374;8.006;2023-06-22T12:59:21;5.50;;;5.10;;
30519;SDS011;17300;50.374;8.006;2023-06-22T13:01:47;5.43;;;5.03;;
30519;SDS011;17300;50.374;8.006;2023-06-22T13:07:08;5.43;;;4.97;;
30519;SDS011;17300;50.374;8.006;2023-06-22T13:09:35;5.60;;;5.10;;
30519;SDS011;17300;50.374;8.006;2023-06-22T13:12:02;5.72;;;5.22;;
30519;SDS011;17300;50.374;8.006;2023-06-22T13:14:31;5.60;;;5.20;;
30519;SDS011;17300;50.374;8.006;2023-06-22T13:16:57;5.57;;;5.05;;
30519;SDS011;17300;50.374;8.006;2023-06-22T13:19:24;5.78;;;5.28;;
30519;SDS011;17300;50.374;8.006;2023-06-22T13:21:53;6.00;;;5.50;;
30519;SDS011;17300;50.374;8.006;2023-06-22T13:24:20;6.15;;;5.55;;
30519;SDS011;17300;50.374;8.006;2023-06-22T13:26:47;5.53;;;5.13;;
30519;SDS011;17300;50.374;8.006;2023-06-22T13:29:13;5.60;;;5.20;;
30519;SDS011;17300;50.374;8.006;2023-06-22T13:31:41;5.78;;;5.28;;
30519;SDS011;17300;50.374;8.006;2023-06-22T13:34:08;6.65;;;5.97;;
30519;SDS011;17300;50.374;8.006;2023-06-22T13:36:35;5.97;;;5.38;;
30519;SDS011;17300;50.374;8.006;2023-06-22T13:39:01;5.90;;;5.38;;
30519;SDS011;17300;50.374;8.006;2023-06-22T13:41:28;5.50;;;5.10;;
30519;SDS011;17300;50.374;8.006;2023-06-22T13:43:55;5.75;;;5.15;;
30519;SDS011;17300;50.374;8.006;2023-06-22T13:46:22;6.00;;;5.43;;
30519;SDS011;17300;50.374;8.006;2023-06-22T13:48:50;5.93;;;5.32;;
30519;SDS011;17300;50.374;8.006;2023-06-22T13:51:17;5.47;;;4.97;;
30519;SDS011;17300;50.374;8.006;2023-06-22T13:53:43;6.63;;;6.03;;
30519;SDS011;17300;50.374;8.006;2023-06-22T13:56:10;5.97;;;5.47;;
30519;SDS011;17300;50.374;8.006;2023-06-22T13:58:37;6.13;;;5.47;;
30519;SDS011;17300;50.374;8.006;2023-06-22T14:01:03;5.47;;;4.97;;
30519;SDS011;17300;50.374;8.006;2023-06-22T14:03:30;6.93;;;5.10;;
30519;SDS011;17300;50.374;8.006;2023-06-22T14:05:58;6.05;;;5.45;;
30519;SDS011;17300;50.374;8.006;2023-06-22T14:08:25;5.80;;;5.20;;
30519;SDS011;17300;50.374;8.006;2023-06-22T14:10:51;5.50;;;5.07;;
30519;SDS011;17300;50.374;8.006;2023-06-22T14:13:18;6.05;;;5.15;;
30519;SDS011;17300;50.374;8.006;2023-06-22T14:15:45;6.53;;;5.28;;
30519;SDS011;17300;50.374;8.006;2023-06-22T14:18:13;5.68;;;5.15;;
30519;SDS011;17300;50.374;8.006;2023-06-22T14:20:40;8.63;;;5.80;;
30519;SDS011;17300;50.374;8.006;2023-06-22T14:23:08;8.93;;;5.70;;
30519;SDS011;17300;50.374;8.006;2023-06-22T14:25:35;6.28;;;4.97;;
30519;SDS011;17300;50.374;8.006;2023-06-22T14:28:01;8.98;;;5.30;;
30519;SDS011;17300;50.374;8.006;2023-06-22T14:30:28;7.90;;;5.30;;
30519;SDS011;17300;50.374;8.006;2023-06-22T14:32:54;6.05;;;4.07;;
30519;SDS011;17300;50.374;8.006;2023-06-22T14:35:21;6.20;;;3.80;;
30519;SDS011;17300;50.374;8.006;2023-06-22T14:37:49;5.63;;;3.35;;
30519;SDS011;17300;50.374;8.006;2023-06-22T14:40:17;4.78;;;3.22;;
30519;SDS011;17300;50.374;8.006;2023-06-22T14:42:43;5.25;;;3.08;;
30519;SDS011;17300;50.374;8.006;2023-06-22T14:45:10;4.78;;;2.97;;
30519;SDS011;17300;50.374;8.006;2023-06-22T14:47:38;7.10;;;3.20;;
30519;SDS011;17300;50.374;8.006;2023-06-22T14:50:05;6.72;;;3.15;;
30519;SDS011;17300;50.374;8.006;2023-06-22T14:52:32;6.32;;;3.13;;